LRCLLRTM

Guest
Details From LRCL - CLUJ NAPOCA
To LRTM - TRANSILVANIA TARGU MURES
Flight Number -
Tags generated
Created
Modified
Stats Distance 36 nm / 66 km
Max Altitude 1,000 ft / 305 m
Waypoints 3
Social Downloads 0
Likes 0
Share VATSIM

Download

Looking for another format? Having issues loading an existing format? Contact us
Advertisement - Login to hide

Notes

Basic altitude profile: - Ascent Rate: 2200ft/min - Ascent Speed: 160kts - Cruise Altitude: 5500ft - Cruise Speed: 180kts - Descent Rate: 1500ft/min - Descent Speed: 160kts Options: - Use NATs: yes - Use PACOTS: yes - Use low airways: yes - Use high airways: yes

Route

LRCL REBLA LRTM

ID Type Via Altitude Latitude Longitude Leg Dist Tot Dist Heading (true) Name
O LRCL APT - 0 ft / 0 m 46.78511˚ 23.68617˚ - 0 nm - CLUJ NAPOCA
REBLA FIX - 1,000 ft / 305 m 46.76013˚ 23.74464˚ 2 nm 2 nm 122° / 122° -
O LRTM APT - 0 ft / 0 m 46.46778˚ 24.41250˚ 32 nm 35 nm 122° / 123° TRANSILVANIA TARGU MURES

Altitude Profile

Advertisement - Login to hide

LRCL

Details ICAO LRCL (CLJ)
Name CLUJ NAPOCA
Region Romania
Timezone Europe/Bucharest (UTC+2.0)
Stats Elevation 1,036 ft / 316 m (AMSL)
Location 46.785109° 23.686166°
Runways 1
Magnetic Variation 5.539° E

METAR

LRCL 180700Z 26005KT 9999 -SN BKN052 01/M02 Q1017 R07/19//95

Decode

TAF

Not found

Departure Runways

ID Width Length Bearing (true) Bearing (mag) Surface Threshold Offset Overrun Length
08 98 ft / 30 m 6,045 ft / 1,842 m 78.96° 73.42° Concrete 0 ft / 0 m 0 ft / 0 m
26 98 ft / 30 m 6,045 ft / 1,842 m 258.98° 253.44° Concrete 0 ft / 0 m 0 ft / 0 m

LRTM

Details ICAO LRTM (TGM)
Name TRANSILVANIA TARGU MURES
Region Romania
Timezone Europe/Bucharest (UTC+2.0)
Stats Elevation 963 ft / 294 m (AMSL)
Location 46.467778° 24.412500°
Runways 1
Magnetic Variation 5.622° E

METAR

LRTM 180700Z 23005KT 3000 -SN BR FEW007 SCT021 BKN045 00/M00 Q1017

Decode

TAF

Not found

Destination Runways

ID Width Length Bearing (true) Bearing (mag) Surface Threshold Offset Overrun Length
07 98 ft / 30 m 6,543 ft / 1,994 m 73.80° 68.18° Concrete 0 ft / 0 m 0 ft / 0 m
25 98 ft / 30 m 6,543 ft / 1,994 m 253.82° 248.20° Concrete 0 ft / 0 m 0 ft / 0 m

Approach Navaids

Runway Type Ident Frequency Range Bearing (true) Bearing (mag) Slope Elevation
07 Localiser ITM 109.50 MHz 18 nm / 33 km 74.22° 68.60° - 963 ft / 294 m (AMSL)
07 Glidescope ITM 109.50 MHz 10 nm / 19 km 73.81° 68.19° 3.20° 963 ft / 294 m (AMSL)

Popular Alternatives